sensor_id;sensor_type;location;lat;lon;timestamp;pressure;altitude;pressure_sealevel;temperature;humidity
65173;BME280;69059;52.218;5.172;2023-12-28T00:02:18;100118.94;;;9.39;100.00
65173;BME280;69059;52.218;5.172;2023-12-28T00:04:46;100097.09;;;9.40;100.00
65173;BME280;69059;52.218;5.172;2023-12-28T00:07:13;100075.41;;;9.33;100.00
65173;BME280;69059;52.218;5.172;2023-12-28T00:09:42;100073.19;;;9.30;100.00
65173;BME280;69059;52.218;5.172;2023-12-28T00:12:10;100040.56;;;9.34;100.00
65173;BME280;69059;52.218;5.172;2023-12-28T00:14:38;100015.06;;;9.29;100.00
65173;BME280;69059;52.218;5.172;2023-12-28T00:17:05;99977.00;;;9.28;100.00
65173;BME280;69059;52.218;5.172;2023-12-28T00:19:33;99952.75;;;9.28;100.00
65173;BME280;69059;52.218;5.172;2023-12-28T00:22:01;99933.56;;;9.36;100.00
65173;BME280;69059;52.218;5.172;2023-12-28T00:24:28;99909.94;;;9.37;100.00
65173;BME280;69059;52.218;5.172;2023-12-28T00:26:57;99898.31;;;9.40;100.00
65173;BME280;69059;52.218;5.172;2023-12-28T00:29:25;99880.47;;;9.37;100.00
65173;BME280;69059;52.218;5.172;2023-12-28T00:31:52;99859.41;;;9.38;100.00
65173;BME280;69059;52.218;5.172;2023-12-28T00:34:20;99841.19;;;9.38;100.00
65173;BME280;69059;52.218;5.172;2023-12-28T00:36:48;99815.94;;;9.39;100.00
65173;BME280;69059;52.218;5.172;2023-12-28T00:39:16;99803.72;;;9.39;100.00
65173;BME280;69059;52.218;5.172;2023-12-28T00:41:43;99777.28;;;9.36;100.00
65173;BME280;69059;52.218;5.172;2023-12-28T00:44:12;99734.59;;;9.43;100.00
65173;BME280;69059;52.218;5.172;2023-12-28T00:46:40;99722.97;;;9.39;100.00
65173;BME280;69059;52.218;5.172;2023-12-28T00:49:08;99713.34;;;9.33;100.00
65173;BME280;69059;52.218;5.172;2023-12-28T00:51:35;99689.28;;;9.31;100.00
65173;BME280;69059;52.218;5.172;2023-12-28T00:54:03;99669.03;;;9.26;100.00
65173;BME280;69059;52.218;5.172;2023-12-28T00:56:31;99613.91;;;9.03;100.00
65173;BME280;69059;52.218;5.172;2023-12-28T00:58:58;99611.75;;;9.20;100.00
65173;BME280;69059;52.218;5.172;2023-12-28T01:01:29;99577.09;;;9.19;100.00
65173;BME280;69059;52.218;5.172;2023-12-28T01:03:58;99557.25;;;9.18;100.00
65173;BME280;69059;52.218;5.172;2023-12-28T01:06:26;99534.44;;;9.20;100.00
65173;BME280;69059;52.218;5.172;2023-12-28T01:08:55;99512.41;;;9.23;100.00
65173;BME280;69059;52.218;5.172;2023-12-28T01:11:23;99500.78;;;9.19;100.00
65173;BME280;69059;52.218;5.172;2023-12-28T01:13:50;99490.56;;;9.24;100.00
65173;BME280;69059;52.218;5.172;2023-12-28T01:16:18;99484.13;;;9.26;100.00
65173;BME280;69059;52.218;5.172;2023-12-28T01:18:47;99487.97;;;9.24;100.00
65173;BME280;69059;52.218;5.172;2023-12-28T01:21:15;99479.34;;;9.23;100.00
65173;BME280;69059;52.218;5.172;2023-12-28T01:23:43;99470.94;;;9.21;100.00
65173;BME280;69059;52.218;5.172;2023-12-28T01:26:12;99476.94;;;9.22;100.00
65173;BME280;69059;52.218;5.172;2023-12-28T01:28:40;99455.91;;;9.17;100.00
65173;BME280;69059;52.218;5.172;2023-12-28T01:31:07;99466.72;;;9.14;100.00
65173;BME280;69059;52.218;5.172;2023-12-28T01:33:35;99453.91;;;9.12;100.00
65173;BME280;69059;52.218;5.172;2023-12-28T01:36:14;99452.91;;;9.13;100.00
65173;BME280;69059;52.218;5.172;2023-12-28T01:38:42;99449.28;;;9.14;100.00
65173;BME280;69059;52.218;5.172;2023-12-28T01:41:10;99461.72;;;9.12;100.00
65173;BME280;69059;52.218;5.172;2023-12-28T01:43:38;99466.31;;;9.17;100.00
65173;BME280;69059;52.218;5.172;2023-12-28T01:46:06;99479.34;;;9.17;100.00
65173;BME280;69059;52.218;5.172;2023-12-28T01:48:36;99483.56;;;9.18;100.00
65173;BME280;69059;52.218;5.172;2023-12-28T01:51:04;99486.75;;;9.20;100.00
65173;BME280;69059;52.218;5.172;2023-12-28T01:53:33;99511.00;;;9.20;100.00
65173;BME280;69059;52.218;5.172;2023-12-28T01:56:01;99514.59;;;9.19;100.00
65173;BME280;69059;52.218;5.172;2023-12-28T01:58:29;99520.63;;;9.20;100.00
65173;BME280;69059;52.218;5.172;2023-12-28T02:00:59;99514.59;;;9.19;100.00
65173;BME280;69059;52.218;5.172;2023-12-28T02:03:28;99530.63;;;9.23;100.00
65173;BME280;69059;52.218;5.172;2023-12-28T02:05:56;99547.25;;;9.22;100.00
65173;BME280;69059;52.218;5.172;2023-12-28T02:08:24;99552.66;;;9.27;100.00
65173;BME280;69059;52.218;5.172;2023-12-28T02:10:53;99565.66;;;9.27;100.00
65173;BME280;69059;52.218;5.172;2023-12-28T02:13:21;99582.91;;;9.28;100.00
65173;BME280;69059;52.218;5.172;2023-12-28T02:15:50;99606.94;;;9.30;100.00
65173;BME280;69059;52.218;5.172;2023-12-28T02:18:19;99617.59;;;9.35;100.00
65173;BME280;69059;52.218;5.172;2023-12-28T02:20:49;99635.22;;;9.33;100.00
65173;BME280;69059;52.218;5.172;2023-12-28T02:23:17;99655.44;;;9.31;100.00
65173;BME280;69059;52.218;5.172;2023-12-28T02:25:46;99673.09;;;9.36;100.00
65173;BME280;69059;52.218;5.172;2023-12-28T02:28:13;99689.72;;;9.34;100.00
65173;BME280;69059;52.218;5.172;2023-12-28T02:30:41;99705.75;;;9.45;100.00
65173;BME280;69059;52.218;5.172;2023-12-28T02:33:11;99742.03;;;9.46;100.00
65173;BME280;69059;52.218;5.172;2023-12-28T02:35:41;99758.63;;;9.39;100.00
65173;BME280;69059;52.218;5.172;2023-12-28T02:38:10;99777.47;;;9.41;100.00
65173;BME280;69059;52.218;5.172;2023-12-28T02:40:39;99787.09;;;9.40;100.00
65173;BME280;69059;52.218;5.172;2023-12-28T02:43:08;99796.50;;;9.34;100.00
65173;BME280;69059;52.218;5.172;2023-12-28T02:45:36;99811.34;;;9.41;100.00
65173;BME280;69059;52.218;5.172;2023-12-28T02:48:05;99813.16;;;9.40;100.00
65173;BME280;69059;52.218;5.172;2023-12-28T02:50:33;99823.56;;;9.40;100.00
65173;BME280;69059;52.218;5.172;2023-12-28T02:53:01;99832.38;;;9.39;100.00
65173;BME280;69059;52.218;5.172;2023-12-28T02:55:29;99848.78;;;9.33;100.00
65173;BME280;69059;52.218;5.172;2023-12-28T02:57:57;99855.19;;;9.30;100.00
65173;BME280;69059;52.218;5.172;2023-12-28T03:00:29;99849.41;;;9.35;100.00
65173;BME280;69059;52.218;5.172;2023-12-28T03:02:57;99835.78;;;9.33;100.00
65173;BME280;69059;52.218;5.172;2023-12-28T03:05:24;99835.97;;;9.38;100.00
65173;BME280;69059;52.218;5.172;2023-12-28T03:07:52;99832.00;;;9.42;100.00
65173;BME280;69059;52.218;5.172;2023-12-28T03:10:22;99854.88;;;9.47;100.00
65173;BME280;69059;52.218;5.172;2023-12-28T03:12:50;99873.09;;;9.47;100.00
65173;BME280;69059;52.218;5.172;2023-12-28T03:15:17;99867.28;;;9.45;100.00
65173;BME280;69059;52.218;5.172;2023-12-28T03:17:46;99875.53;;;9.48;100.00
65173;BME280;69059;52.218;5.172;2023-12-28T03:20:14;99885.13;;;9.48;100.00
65173;BME280;69059;52.218;5.172;2023-12-28T03:22:42;99885.31;;;9.46;100.00
65173;BME280;69059;52.218;5.172;2023-12-28T03:25:10;99886.94;;;9.47;100.00
65173;BME280;69059;52.218;5.172;2023-12-28T03:27:38;99892.34;;;9.46;100.00
65173;BME280;69059;52.218;5.172;2023-12-28T03:30:06;99889.53;;;9.47;100.00
65173;BME280;69059;52.218;5.172;2023-12-28T03:32:34;99898.72;;;9.43;100.00
65173;BME280;69059;52.218;5.172;2023-12-28T03:35:03;99900.91;;;9.40;100.00
65173;BME280;69059;52.218;5.172;2023-12-28T03:37:33;99895.69;;;9.40;100.00
65173;BME280;69059;52.218;5.172;2023-12-28T03:40:00;99897.91;;;9.36;100.00
65173;BME280;69059;52.218;5.172;2023-12-28T03:42:28;99887.44;;;9.29;100.00
65173;BME280;69059;52.218;5.172;2023-12-28T03:44:56;99890.28;;;9.34;100.00
65173;BME280;69059;52.218;5.172;2023-12-28T03:47:24;99886.63;;;9.22;100.00
65173;BME280;69059;52.218;5.172;2023-12-28T03:49:51;99881.81;;;9.26;100.00
65173;BME280;69059;52.218;5.172;2023-12-28T03:52:20;99891.63;;;9.24;100.00
65173;BME280;69059;52.218;5.172;2023-12-28T03:54:49;99885.56;;;9.17;100.00
65173;BME280;69059;52.218;5.172;2023-12-28T03:57:16;99877.13;;;9.15;100.00
65173;BME280;69059;52.218;5.172;2023-12-28T03:59:44;99877.13;;;9.15;100.00
65173;BME280;69059;52.218;5.172;2023-12-28T04:02:14;99859.72;;;9.15;100.00
65173;BME280;69059;52.218;5.172;2023-12-28T04:04:41;99858.53;;;9.18;100.00
65173;BME280;69059;52.218;5.172;2023-12-28T04:07:09;99858.28;;;9.13;100.00
65173;BME280;69059;52.218;5.172;2023-12-28T04:09:38;99864.53;;;9.12;100.00
65173;BME280;69059;52.218;5.172;2023-12-28T04:12:06;99859.09;;;9.13;100.00
65173;BME280;69059;52.218;5.172;2023-12-28T04:14:34;99857.53;;;9.19;100.00
65173;BME280;69059;52.218;5.172;2023-12-28T04:17:02;99863.56;;;9.26;100.00
65173;BME280;69059;52.218;5.172;2023-12-28T04:19:30;99876.03;;;9.30;100.00
65173;BME280;69059;52.218;5.172;2023-12-28T04:21:58;99904.72;;;9.37;100.00
65173;BME280;69059;52.218;5.172;2023-12-28T04:24:25;99915.72;;;9.39;100.00
65173;BME280;69059;52.218;5.172;2023-12-28T04:26:54;99945.44;;;9.45;100.00
65173;BME280;69059;52.218;5.172;2023-12-28T04:29:22;99960.44;;;9.43;100.00
65173;BME280;69059;52.218;5.172;2023-12-28T04:31:50;99981.34;;;9.49;100.00
65173;BME280;69059;52.218;5.172;2023-12-28T04:34:18;100001.16;;;9.50;100.00
65173;BME280;69059;52.218;5.172;2023-12-28T04:36:46;100013.81;;;9.53;100.00
65173;BME280;69059;52.218;5.172;2023-12-28T04:39:15;100036.09;;;9.56;100.00
65173;BME280;69059;52.218;5.172;2023-12-28T04:41:42;100042.13;;;9.56;100.00
65173;BME280;69059;52.218;5.172;2023-12-28T04:44:11;100060.09;;;9.51;100.00
65173;BME280;69059;52.218;5.172;2023-12-28T04:46:39;100075.56;;;9.53;100.00
65173;BME280;69059;52.218;5.172;2023-12-28T04:49:10;100090.81;;;9.56;100.00
65173;BME280;69059;52.218;5.172;2023-12-28T04:51:41;100094.59;;;9.53;100.00
65173;BME280;69059;52.218;5.172;2023-12-28T04:54:09;100117.88;;;9.55;100.00
65173;BME280;69059;52.218;5.172;2023-12-28T04:56:37;100131.97;;;9.60;100.00
65173;BME280;69059;52.218;5.172;2023-12-28T04:59:04;100143.75;;;9.56;100.00
65173;BME280;69059;52.218;5.172;2023-12-28T05:01:33;100168.44;;;9.60;100.00
65173;BME280;69059;52.218;5.172;2023-12-28T05:04:07;100193.94;;;9.65;100.00
65173;BME280;69059;52.218;5.172;2023-12-28T05:06:37;100216.47;;;9.73;100.00
65173;BME280;69059;52.218;5.172;2023-12-28T05:09:04;100243.53;;;9.72;100.00
65173;BME280;69059;52.218;5.172;2023-12-28T05:11:32;100269.59;;;9.72;100.00
65173;BME280;69059;52.218;5.172;2023-12-28T05:13:59;100279.84;;;9.73;100.00
65173;BME280;69059;52.218;5.172;2023-12-28T05:16:27;100294.28;;;9.76;100.00
65173;BME280;69059;52.218;5.172;2023-12-28T05:18:56;100304.09;;;9.74;100.00
65173;BME280;69059;52.218;5.172;2023-12-28T05:21:24;100325.19;;;9.79;100.00
65173;BME280;69059;52.218;5.172;2023-12-28T05:23:51;100334.81;;;9.78;100.00
65173;BME280;69059;52.218;5.172;2023-12-28T05:26:19;100344.44;;;9.78;100.00
65173;BME280;69059;52.218;5.172;2023-12-28T05:28:47;100355.25;;;9.75;100.00
65173;BME280;69059;52.218;5.172;2023-12-28T05:31:14;100349.03;;;9.76;100.00
65173;BME280;69059;52.218;5.172;2023-12-28T05:33:42;100356.47;;;9.79;100.00
65173;BME280;69059;52.218;5.172;2023-12-28T05:36:11;100374.38;;;9.82;100.00
65173;BME280;69059;52.218;5.172;2023-12-28T05:38:38;100369.59;;;9.85;100.00
65173;BME280;69059;52.218;5.172;2023-12-28T05:41:06;100385.41;;;9.84;100.00
65173;BME280;69059;52.218;5.172;2023-12-28T05:43:34;100379.22;;;9.85;100.00
65173;BME280;69059;52.218;5.172;2023-12-28T05:46:01;100383.63;;;9.84;100.00
65173;BME280;69059;52.218;5.172;2023-12-28T05:48:29;100397.09;;;9.88;100.00
65173;BME280;69059;52.218;5.172;2023-12-28T05:50:57;100408.53;;;9.87;100.00
65173;BME280;69059;52.218;5.172;2023-12-28T05:53:26;100406.09;;;9.85;100.00
65173;BME280;69059;52.218;5.172;2023-12-28T05:55:54;100411.50;;;9.84;100.00
65173;BME280;69059;52.218;5.172;2023-12-28T05:58:21;100422.78;;;9.91;100.00
65173;BME280;69059;52.218;5.172;2023-12-28T06:00:49;100429.81;;;9.90;100.00
65173;BME280;69059;52.218;5.172;2023-12-28T06:03:17;100441.84;;;9.91;100.00
65173;BME280;69059;52.218;5.172;2023-12-28T06:05:45;100449.84;;;9.90;100.00
65173;BME280;69059;52.218;5.172;2023-12-28T06:08:13;100460.28;;;9.90;100.00
65173;BME280;69059;52.218;5.172;2023-12-28T06:10:42;100464.97;;;9.94;100.00
65173;BME280;69059;52.218;5.172;2023-12-28T06:13:09;100469.09;;;9.89;100.00
65173;BME280;69059;52.218;5.172;2023-12-28T06:15:37;100467.13;;;9.91;100.00
65173;BME280;69059;52.218;5.172;2023-12-28T06:18:05;100463.06;;;9.88;100.00
65173;BME280;69059;52.218;5.172;2023-12-28T06:20:33;100470.72;;;9.90;100.00
65173;BME280;69059;52.218;5.172;2023-12-28T06:23:00;100468.28;;;9.88;100.00
65173;BME280;69059;52.218;5.172;2023-12-28T06:25:28;100470.13;;;9.88;100.00
65173;BME280;69059;52.218;5.172;2023-12-28T06:27:57;100488.78;;;9.91;100.00
65173;BME280;69059;52.218;5.172;2023-12-28T06:30:25;100504.09;;;9.94;100.00
65173;BME280;69059;52.218;5.172;2023-12-28T06:32:53;100506.69;;;9.94;100.00
65173;BME280;69059;52.218;5.172;2023-12-28T06:35:21;100518.81;;;10.02;100.00
65173;BME280;69059;52.218;5.172;2023-12-28T06:37:49;100528.38;;;9.95;100.00
65173;BME280;69059;52.218;5.172;2023-12-28T06:40:16;100534.66;;;10.00;100.00
65173;BME280;69059;52.218;5.172;2023-12-28T06:42:44;100546.91;;;10.00;100.00
65173;BME280;69059;52.218;5.172;2023-12-28T06:45:13;100552.13;;;10.00;100.00
65173;BME280;69059;52.218;5.172;2023-12-28T06:47:40;100558.31;;;9.99;100.00
65173;BME280;69059;52.218;5.172;2023-12-28T06:50:08;100563.78;;;10.04;100.00
65173;BME280;69059;52.218;5.172;2023-12-28T06:52:36;100574.38;;;10.02;100.00
65173;BME280;69059;52.218;5.172;2023-12-28T06:55:04;100567.75;;;10.00;100.00
65173;BME280;69059;52.218;5.172;2023-12-28T06:57:31;100588.25;;;10.03;100.00
65173;BME280;69059;52.218;5.172;2023-12-28T06:59:59;100590.84;;;10.03;100.00
65173;BME280;69059;52.218;5.172;2023-12-28T07:02:30;100604.69;;;10.03;100.00
65173;BME280;69059;52.218;5.172;2023-12-28T07:04:58;100606.16;;;10.06;100.00
65173;BME280;69059;52.218;5.172;2023-12-28T07:07:26;100607.47;;;10.02;100.00
65173;BME280;69059;52.218;5.172;2023-12-28T07:09:53;100618.91;;;10.01;100.00
65173;BME280;69059;52.218;5.172;2023-12-28T07:12:21;100623.13;;;10.02;100.00
65173;BME280;69059;52.218;5.172;2023-12-28T07:14:50;100622.88;;;9.97;100.00
65173;BME280;69059;52.218;5.172;2023-12-28T07:17:17;100643.56;;;9.98;100.00
65173;BME280;69059;52.218;5.172;2023-12-28T07:19:46;100655.63;;;9.99;100.00
65173;BME280;69059;52.218;5.172;2023-12-28T07:22:14;100642.28;;;9.94;100.00
65173;BME280;69059;52.218;5.172;2023-12-28T07:24:42;100650.13;;;9.94;100.00
65173;BME280;69059;52.218;5.172;2023-12-28T07:27:09;100652.09;;;9.92;100.00
65173;BME280;69059;52.218;5.172;2023-12-28T07:29:37;100649.41;;;9.86;100.00
65173;BME280;69059;52.218;5.172;2023-12-28T07:32:05;100658.22;;;9.85;100.00
65173;BME280;69059;52.218;5.172;2023-12-28T07:34:34;100654.97;;;9.83;100.00
65173;BME280;69059;52.218;5.172;2023-12-28T07:37:04;100650.09;;;9.80;100.00
65173;BME280;69059;52.218;5.172;2023-12-28T07:39:31;100645.88;;;9.79;100.00
65173;BME280;69059;52.218;5.172;2023-12-28T07:41:59;100652.88;;;9.78;100.00
65173;BME280;69059;52.218;5.172;2023-12-28T07:44:27;100654.78;;;9.84;100.00
65173;BME280;69059;52.218;5.172;2023-12-28T07:46:54;100657.91;;;9.80;100.00
65173;BME280;69059;52.218;5.172;2023-12-28T07:49:22;100654.16;;;9.82;100.00
65173;BME280;69059;52.218;5.172;2023-12-28T07:51:50;100623.91;;;9.58;100.00
65173;BME280;69059;52.218;5.172;2023-12-28T07:54:19;100654.97;;;9.83;100.00
65173;BME280;69059;52.218;5.172;2023-12-28T07:56:47;100669.16;;;9.80;100.00
65173;BME280;69059;52.218;5.172;2023-12-28T07:59:14;100658.09;;;9.78;100.00
65173;BME280;69059;52.218;5.172;2023-12-28T08:01:42;100663.94;;;9.80;100.00
65173;BME280;69059;52.218;5.172;2023-12-28T08:04:09;100649.09;;;9.81;100.00
65173;BME280;69059;52.218;5.172;2023-12-28T08:06:37;100645.69;;;9.80;100.00
65173;BME280;69059;52.218;5.172;2023-12-28T08:09:05;100641.94;;;9.83;100.00
65173;BME280;69059;52.218;5.172;2023-12-28T08:11:34;100643.53;;;9.84;100.00
65173;BME280;69059;52.218;5.172;2023-12-28T08:14:02;100608.91;;;9.60;100.00
65173;BME280;69059;52.218;5.172;2023-12-28T08:16:30;100650.56;;;9.83;100.00
65173;BME280;69059;52.218;5.172;2023-12-28T08:18:57;100664.41;;;9.84;100.00
65173;BME280;69059;52.218;5.172;2023-12-28T08:21:25;100653.25;;;9.90;100.00
65173;BME280;69059;52.218;5.172;2023-12-28T08:23:53;100669.53;;;9.92;100.00
65173;BME280;69059;52.218;5.172;2023-12-28T08:26:20;100662.06;;;9.89;100.00
65173;BME280;69059;52.218;5.172;2023-12-28T08:28:49;100668.63;;;9.85;100.00
65173;BME280;69059;52.218;5.172;2023-12-28T08:31:17;100666.13;;;9.91;100.00
65173;BME280;69059;52.218;5.172;2023-12-28T08:33:45;100678.97;;;9.93;100.00
65173;BME280;69059;52.218;5.172;2023-12-28T08:36:13;100687.28;;;9.96;100.00
65173;BME280;69059;52.218;5.172;2023-12-28T08:38:41;100681.06;;;9.97;100.00
65173;BME280;69059;52.218;5.172;2023-12-28T08:41:17;100680.13;;;9.90;100.00
65173;BME280;69059;52.218;5.172;2023-12-28T08:43:45;100682.22;;;9.95;100.00
65173;BME280;69059;52.218;5.172;2023-12-28T08:46:14;100672.59;;;9.95;100.00
65173;BME280;69059;52.218;5.172;2023-12-28T08:48:42;100670.16;;;9.94;100.00
65173;BME280;69059;52.218;5.172;2023-12-28T08:51:10;100674.75;;;9.92;100.00
65173;BME280;69059;52.218;5.172;2023-12-28T08:53:37;100674.56;;;9.93;100.00
65173;BME280;69059;52.218;5.172;2023-12-28T08:56:12;100674.09;;;9.90;100.00
65173;BME280;69059;52.218;5.172;2023-12-28T08:58:40;100690.84;;;9.95;100.00
65173;BME280;69059;52.218;5.172;2023-12-28T09:01:08;100686.38;;;10.04;100.00
65173;BME280;69059;52.218;5.172;2023-12-28T09:03:37;100701.22;;;10.03;100.00
65173;BME280;69059;52.218;5.172;2023-12-28T09:06:04;100695.56;;;10.00;100.00
65173;BME280;69059;52.218;5.172;2023-12-28T09:08:32;100704.19;;;10.00;100.00
65173;BME280;69059;52.218;5.172;2023-12-28T09:11:03;100703.00;;;10.03;100.00
65173;BME280;69059;52.218;5.172;2023-12-28T09:13:31;100695.25;;;9.95;100.00
65173;BME280;69059;52.218;5.172;2023-12-28T09:15:58;100711.63;;;10.03;100.00
65173;BME280;69059;52.218;5.172;2023-12-28T09:18:31;100680.69;;;9.86;100.00
65173;BME280;69059;52.218;5.172;2023-12-28T09:21:00;100710.19;;;10.01;100.00
65173;BME280;69059;52.218;5.172;2023-12-28T09:23:28;100723.53;;;10.06;100.00
65173;BME280;69059;52.218;5.172;2023-12-28T09:25:55;100731.69;;;10.03;100.00
65173;BME280;69059;52.218;5.172;2023-12-28T09:28:23;100725.84;;;10.01;100.00
65173;BME280;69059;52.218;5.172;2023-12-28T09:30:51;100707.66;;;9.93;100.00
65173;BME280;69059;52.218;5.172;2023-12-28T09:33:19;100676.16;;;9.80;100.00
65173;BME280;69059;52.218;5.172;2023-12-28T09:35:47;100677.66;;;10.12;100.00
65173;BME280;69059;52.218;5.172;2023-12-28T09:38:19;100693.31;;;10.12;100.00
65173;BME280;69059;52.218;5.172;2023-12-28T09:40:46;100712.19;;;10.14;100.00
65173;BME280;69059;52.218;5.172;2023-12-28T09:43:15;100733.25;;;10.12;100.00
65173;BME280;69059;52.218;5.172;2023-12-28T09:45:46;100739.72;;;10.16;100.00
65173;BME280;69059;52.218;5.172;2023-12-28T09:48:14;100755.69;;;10.21;100.00
65173;BME280;69059;52.218;5.172;2023-12-28T09:50:42;100780.81;;;10.22;100.00
65173;BME280;69059;52.218;5.172;2023-12-28T09:53:10;100780.81;;;10.22;100.00
65173;BME280;69059;52.218;5.172;2023-12-28T09:55:39;100809.16;;;10.25;100.00
65173;BME280;69059;52.218;5.172;2023-12-28T09:58:07;100810.97;;;10.25;100.00
65173;BME280;69059;52.218;5.172;2023-12-28T10:00:34;100814.09;;;10.20;100.00
65173;BME280;69059;52.218;5.172;2023-12-28T10:03:02;100815.06;;;10.19;100.00
65173;BME280;69059;52.218;5.172;2023-12-28T10:05:30;100813.56;;;10.25;100.00
65173;BME280;69059;52.218;5.172;2023-12-28T10:07:58;100815.06;;;10.19;100.00
65173;BME280;69059;52.218;5.172;2023-12-28T10:10:26;100818.53;;;10.12;100.00
65173;BME280;69059;52.218;5.172;2023-12-28T10:12:55;100800.44;;;10.10;100.00
65173;BME280;69059;52.218;5.172;2023-12-28T10:15:23;100761.84;;;10.05;100.00
65173;BME280;69059;52.218;5.172;2023-12-28T10:17:51;100756.69;;;9.97;100.00
65173;BME280;69059;52.218;5.172;2023-12-28T10:20:19;100752.72;;;10.01;100.00
65173;BME280;69059;52.218;5.172;2023-12-28T10:22:47;100741.56;;;9.93;100.00
65173;BME280;69059;52.218;5.172;2023-12-28T10:25:14;100717.75;;;9.96;100.00
65173;BME280;69059;52.218;5.172;2023-12-28T10:27:42;100676.13;;;9.88;100.00
65173;BME280;69059;52.218;5.172;2023-12-28T10:30:12;100664.75;;;9.81;100.00
65173;BME280;69059;52.218;5.172;2023-12-28T10:32:40;100649.75;;;9.83;100.00
65173;BME280;69059;52.218;5.172;2023-12-28T10:35:09;100644.81;;;9.88;100.00
65173;BME280;69059;52.218;5.172;2023-12-28T10:37:37;100669.34;;;9.93;100.00
65173;BME280;69059;52.218;5.172;2023-12-28T10:40:12;100677.56;;;10.05;100.00
65173;BME280;69059;52.218;5.172;2023-12-28T10:42:42;100687.63;;;10.08;100.00
65173;BME280;69059;52.218;5.172;2023-12-28T10:45:15;100717.06;;;10.17;100.00
65173;BME280;69059;52.218;5.172;2023-12-28T10:47:46;100742.31;;;10.24;100.00
65173;BME280;69059;52.218;5.172;2023-12-28T10:50:17;100759.28;;;10.20;100.00
65173;BME280;69059;52.218;5.172;2023-12-28T10:52:45;100759.84;;;10.30;100.00
65173;BME280;69059;52.218;5.172;2023-12-28T10:55:20;100782.00;;;10.34;100.00
65173;BME280;69059;52.218;5.172;2023-12-28T10:57:52;100798.47;;;10.35;100.00
65173;BME280;69059;52.218;5.172;2023-12-28T11:00:24;100810.88;;;10.33;100.00
65173;BME280;69059;52.218;5.172;2023-12-28T11:02:53;100814.13;;;10.35;100.00
65173;BME280;69059;52.218;5.172;2023-12-28T11:05:24;100821.88;;;10.43;100.00
65173;BME280;69059;52.218;5.172;2023-12-28T11:07:53;100823.19;;;10.39;100.00
65173;BME280;69059;52.218;5.172;2023-12-28T11:10:22;100814.03;;;10.43;100.00
65173;BME280;69059;52.218;5.172;2023-12-28T11:12:51;100823.22;;;10.54;100.00
65173;BME280;69059;52.218;5.172;2023-12-28T11:15:19;100829.63;;;10.51;100.00
65173;BME280;69059;52.218;5.172;2023-12-28T11:17:48;100832.78;;;10.47;100.00
65173;BME280;69059;52.218;5.172;2023-12-28T11:20:16;100829.63;;;10.51;100.00
65173;BME280;69059;52.218;5.172;2023-12-28T11:22:44;100847.16;;;10.43;100.00
65173;BME280;69059;52.218;5.172;2023-12-28T11:25:15;100846.50;;;10.40;100.00
65173;BME280;69059;52.218;5.172;2023-12-28T11:27:45;100844.53;;;10.43;100.00
65173;BME280;69059;52.218;5.172;2023-12-28T11:30:13;100837.06;;;10.39;100.00
65173;BME280;69059;52.218;5.172;2023-12-28T11:32:41;100845.53;;;10.41;100.00
65173;BME280;69059;52.218;5.172;2023-12-28T11:35:12;100833.03;;;10.37;100.00
65173;BME280;69059;52.218;5.172;2023-12-28T11:37:42;100831.94;;;10.31;100.00
65173;BME280;69059;52.218;5.172;2023-12-28T11:40:16;100841.84;;;10.36;100.00
65173;BME280;69059;52.218;5.172;2023-12-28T11:42:47;100842.28;;;10.39;100.00
65173;BME280;69059;52.218;5.172;2023-12-28T11:45:16;100833.63;;;10.39;100.00
65173;BME280;69059;52.218;5.172;2023-12-28T11:47:44;100841.13;;;10.42;100.00
65173;BME280;69059;52.218;5.172;2023-12-28T11:50:13;100830.69;;;10.42;100.00
65173;BME280;69059;52.218;5.172;2023-12-28T11:52:41;100847.50;;;10.39;100.00
65173;BME280;69059;52.218;5.172;2023-12-28T11:55:11;100840.13;;;10.43;100.00
65173;BME280;69059;52.218;5.172;2023-12-28T11:57:39;100842.75;;;10.43;100.00
65173;BME280;69059;52.218;5.172;2023-12-28T12:00:07;100832.47;;;10.41;100.00
65173;BME280;69059;52.218;5.172;2023-12-28T12:02:35;100822.22;;;10.40;100.00
65173;BME280;69059;52.218;5.172;2023-12-28T12:05:03;100826.28;;;10.43;100.00
65173;BME280;69059;52.218;5.172;2023-12-28T12:07:32;100811.44;;;10.43;100.00
65173;BME280;69059;52.218;5.172;2023-12-28T12:09:59;100818.44;;;10.43;100.00
65173;BME280;69059;52.218;5.172;2023-12-28T12:12:27;100820.41;;;10.40;100.00
65173;BME280;69059;52.218;5.172;2023-12-28T12:14:55;100826.63;;;10.39;100.00
65173;BME280;69059;52.218;5.172;2023-12-28T12:17:23;100818.09;;;10.46;100.00
65173;BME280;69059;52.218;5.172;2023-12-28T12:19:52;100828.38;;;10.47;100.00
65173;BME280;69059;52.218;5.172;2023-12-28T12:22:22;100829.72;;;10.58;100.00
65173;BME280;69059;52.218;5.172;2023-12-28T12:24:56;100831.88;;;10.54;100.00
65173;BME280;69059;52.218;5.172;2023-12-28T12:27:24;100850.25;;;10.61;100.00
65173;BME280;69059;52.218;5.172;2023-12-28T12:29:51;100868.44;;;10.69;100.00
65173;BME280;69059;52.218;5.172;2023-12-28T12:32:19;100866.47;;;10.71;100.00
65173;BME280;69059;52.218;5.172;2023-12-28T12:34:48;100884.13;;;10.69;100.00
65173;BME280;69059;52.218;5.172;2023-12-28T12:37:16;100879.38;;;10.72;100.00
65173;BME280;69059;52.218;5.172;2023-12-28T12:39:44;100884.94;;;10.69;100.00
65173;BME280;69059;52.218;5.172;2023-12-28T12:42:13;100876.47;;;10.67;100.00
65173;BME280;69059;52.218;5.172;2023-12-28T12:44:41;100879.25;;;10.66;100.00
65173;BME280;69059;52.218;5.172;2023-12-28T12:47:08;100882.97;;;10.71;100.00
65173;BME280;69059;52.218;5.172;2023-12-28T12:49:36;100875.75;;;10.73;100.00
65173;BME280;69059;52.218;5.172;2023-12-28T12:52:06;100886.56;;;10.70;100.00
65173;BME280;69059;52.218;5.172;2023-12-28T12:54:34;100884.75;;;10.71;100.00
65173;BME280;69059;52.218;5.172;2023-12-28T12:57:02;100876.81;;;10.64;100.00